Pilot Hill, California
Current Conditions -  °F | °C
As of 11:35 AM on Tuesday 21 Oct 2014 (Local Time) from KAUN Reporting Station
Clear Clear  
Wind Chill: 16°   Ceiling: Unl
Heat Index: 16°   Visibility: 10mi
Dew Point:   Wind: 3mph
Humidity: 55%   Direction: 320°NW
Pressure: 30.08"   Gusts: NA
Location:  38.83°N, 121.02°W
Report Text: KAUN 211835Z AUTO 32003KT 10SM CLR 16/07 A3008 RMK AO1
Loading
Personal Weather Stations






























Interactive Weather Map
Tropical Storm Tracking
New forecast layout! Learn more

10-Day Weather Forecast

Advertisements
Track Severe Weather on mobile